Hailun, China
Current Conditions -  °F | °C
As of 4:00 AM on Friday 30 Jan 2015 (Local Time) from ZYHB Reporting Station
Smoke Smoke  
Wind Chill: -14°   Ceiling: Unl
Heat Index: -4°   Visibility: 1.8mi
Dew Point: -8°   Wind: 4mph
Humidity: 85%   Direction: 170°S
Pressure: 30.21"   Gusts: NA
Location:  47.45°N, 126.93°E
Report Text: ZYHB 292000Z 17002MPS 140V200 3000 FU NSC M20/M22 Q1023 NOSIG
Loading
Personal Weather Stations






























Interactive Weather Map New forecast layout! Learn more

10-Day Weather Forecast

Advertisements
Track Severe Weather on mobile